Time;durP1;ratioP1;P1;durP2;ratioP2;P2;SDS_P1;SDS_P2;PMS_P1;PMS_P2;Temp;Humidity;BMP_temperature;BMP_pressure;BME280_temperature;BME280_humidity;BME280_pressure;Samples;Min_cycle;Max_cycle;Signal;HPM_P1;HPM_P2
2023/07/06 00:00:03;;;;;;;0.10;0.10;;;;;;;-145.06;100.00;63404.56;10380317;28;20059;-76
2023/07/06 00:05:04;;;;;;;0.10;0.10;;;;;;;-145.06;100.00;63404.56;10377161;28;20026;-76
2023/07/06 00:10:04;;;;;;;0.00;0.00;;;;;;;-145.06;100.00;63404.56;10377546;28;21577;-77
2023/07/06 00:15:05;;;;;;;0.10;0.10;;;;;;;-145.06;100.00;63404.56;10375190;28;20606;-77
2023/07/06 00:20:10;;;;;;;0.10;0.10;;;;;;;-145.06;100.00;63404.56;10387890;28;20038;-77
2023/07/06 00:25:12;;;;;;;0.10;0.10;;;;;;;-145.06;100.00;63404.56;10390307;28;20401;-77
2023/07/06 00:30:15;;;;;;;0.10;0.10;;;;;;;-145.06;100.00;63404.56;10380379;28;20490;-76
2023/07/06 00:35:15;;;;;;;0.10;0.10;;;;;;;-145.06;100.00;63404.56;10366078;28;20025;-76
2023/07/06 00:40:17;;;;;;;0.10;0.10;;;;;;;-145.06;100.00;63404.56;10378178;28;20029;-77
2023/07/06 01:02:30;;;;;;;0.10;0.10;;;;;;;-145.06;100.00;63404.56;10474920;22;20034;-76
2023/07/06 01:07:32;;;;;;;0.10;0.10;;;;;;;-145.06;100.00;63404.56;10387065;28;20480;-76
2023/07/06 01:12:33;;;;;;;0.10;0.10;;;;;;;-145.06;100.00;63404.56;10380484;28;20088;-76
2023/07/06 01:17:53;;;;;;;0.10;0.10;;;;;;;-145.06;100.00;63404.56;10390060;28;20448;-77
2023/07/06 01:23:04;;;;;;;0.10;0.10;;;;;;;-145.06;100.00;63404.56;10387797;28;20060;-76
2023/07/06 01:28:26;;;;;;;0.00;0.00;;;;;;;-145.06;100.00;63404.56;10381962;28;20108;-76
2023/07/06 01:33:40;;;;;;;0.00;0.00;;;;;;;-145.06;100.00;63404.56;10376459;28;20560;-77
2023/07/06 01:38:41;;;;;;;0.10;0.10;;;;;;;-145.06;100.00;63404.56;10367306;28;20064;-76
2023/07/06 01:43:42;;;;;;;0.10;0.10;;;;;;;-145.06;100.00;63404.56;10384083;28;20049;-76
2023/07/06 01:48:43;;;;;;;0.10;0.10;;;;;;;-145.06;100.00;63404.56;10382994;28;20075;-77
2023/07/06 01:53:48;;;;;;;0.10;0.10;;;;;;;-145.06;100.00;63404.56;10369891;28;20083;-76
2023/07/06 01:59:00;;;;;;;0.10;0.10;;;;;;;-145.06;100.00;63404.56;10384507;28;20040;-77
2023/07/06 02:04:03;;;;;;;0.10;0.10;;;;;;;-145.06;100.00;63404.56;10381553;28;20125;-76
2023/07/06 02:09:04;;;;;;;0.10;0.10;;;;;;;-145.06;100.00;63404.56;10385089;28;20419;-76
2023/07/06 02:14:05;;;;;;;0.10;0.10;;;;;;;-145.06;100.00;63404.56;10391326;28;20036;-76
2023/07/06 02:19:05;;;;;;;0.10;0.10;;;;;;;-145.06;100.00;63404.56;10380451;28;20029;-77
2023/07/06 02:24:07;;;;;;;0.10;0.10;;;;;;;-145.06;100.00;63404.56;10382487;28;20044;-76
2023/07/06 02:29:08;;;;;;;0.10;0.10;;;;;;;-145.06;100.00;63404.56;10380670;28;20033;-76
2023/07/06 02:34:08;;;;;;;0.10;0.10;;;;;;;-145.06;100.00;63404.56;10389246;28;20490;-76
2023/07/06 02:39:08;;;;;;;0.10;0.10;;;;;;;-145.06;100.00;63404.56;10399452;28;20501;-76
2023/07/06 02:44:08;;;;;;;0.10;0.10;;;;;;;-145.06;100.00;63404.56;10379690;28;20022;-76
2023/07/06 02:49:09;;;;;;;0.10;0.10;;;;;;;-145.06;100.00;63404.56;10386463;28;20069;-76
2023/07/06 02:54:13;;;;;;;0.10;0.10;;;;;;;-145.06;100.00;63404.56;10386598;28;20485;-77
2023/07/06 02:59:13;;;;;;;0.10;0.10;;;;;;;-145.06;100.00;63404.56;10376738;28;20087;-76
2023/07/06 03:04:15;;;;;;;0.10;0.10;;;;;;;-145.06;100.00;63404.56;10388730;28;20037;-77
2023/07/06 03:09:15;;;;;;;0.10;0.10;;;;;;;-145.06;100.00;63404.56;10393561;28;20425;-77
2023/07/06 03:14:21;;;;;;;0.10;0.10;;;;;;;-145.06;100.00;63404.56;10394330;28;20036;-77
2023/07/06 03:19:22;;;;;;;0.10;0.10;;;;;;;-145.06;100.00;63404.56;10390392;28;20465;-75
2023/07/06 03:24:22;;;;;;;0.10;0.10;;;;;;;-145.06;100.00;63404.56;10394158;28;20030;-76
2023/07/06 03:29:22;;;;;;;0.10;0.10;;;;;;;-145.06;100.00;63404.56;10383632;28;20102;-76
2023/07/06 03:34:23;;;;;;;0.00;0.00;;;;;;;-145.06;100.00;63404.56;10378559;28;20120;-76
2023/07/06 03:39:23;;;;;;;0.00;0.00;;;;;;;-145.06;100.00;63404.56;10392458;28;20263;-77
2023/07/06 03:44:24;;;;;;;0.10;0.10;;;;;;;-145.06;100.00;63404.56;10397206;28;20049;-76
2023/07/06 03:49:24;;;;;;;0.10;0.10;;;;;;;-145.06;100.00;63404.56;10384243;28;20490;-76
2023/07/06 03:54:25;;;;;;;0.10;0.10;;;;;;;-145.06;100.00;63404.56;10390965;28;20018;-76
2023/07/06 03:59:27;;;;;;;0.10;0.10;;;;;;;-145.06;100.00;63404.56;10377323;28;20279;-76
2023/07/06 04:04:28;;;;;;;0.10;0.10;;;;;;;-145.06;100.00;63404.56;10359846;28;20398;-76
2023/07/06 04:09:29;;;;;;;0.05;0.05;;;;;;;-145.06;100.00;63404.56;10386118;28;20533;-77
2023/07/06 04:14:29;;;;;;;0.10;0.10;;;;;;;-145.06;100.00;63404.56;10388169;28;20021;-76
2023/07/06 04:19:30;;;;;;;0.10;0.10;;;;;;;-145.06;100.00;63404.56;10386876;28;20040;-76
2023/07/06 04:24:31;;;;;;;0.10;0.10;;;;;;;-145.06;100.00;63404.56;10383822;28;20032;-76
2023/07/06 04:29:31;;;;;;;0.10;0.10;;;;;;;-145.06;100.00;63404.56;10391549;28;20059;-76
2023/07/06 04:34:32;;;;;;;0.10;0.10;;;;;;;-145.06;100.00;63404.56;10385246;28;20482;-76
2023/07/06 04:39:36;;;;;;;0.10;0.10;;;;;;;-145.06;100.00;63404.56;10380187;28;20523;-76
2023/07/06 04:44:36;;;;;;;0.10;0.10;;;;;;;-145.06;100.00;63404.56;10386528;28;20397;-76
2023/07/06 04:49:37;;;;;;;0.00;0.00;;;;;;;-145.06;100.00;63404.56;10389316;28;20040;-76
2023/07/06 04:54:39;;;;;;;0.00;0.00;;;;;;;-145.06;100.00;63404.56;10389393;28;20041;-76
2023/07/06 04:59:40;;;;;;;0.00;0.00;;;;;;;-145.06;100.00;63404.56;10383762;28;20045;-77
2023/07/06 05:04:41;;;;;;;0.00;0.00;;;;;;;-145.06;100.00;63404.56;10377186;28;20430;-77
2023/07/06 05:09:42;;;;;;;0.10;0.10;;;;;;;-145.06;100.00;63404.56;10381482;28;20486;-77
2023/07/06 05:14:43;;;;;;;0.00;0.00;;;;;;;-145.06;100.00;63404.56;10382296;28;20080;-77
2023/07/06 05:19:43;;;;;;;0.10;0.10;;;;;;;-145.06;100.00;63404.56;10393956;28;20025;-77
2023/07/06 05:24:43;;;;;;;0.00;0.00;;;;;;;-145.06;100.00;63404.56;10386295;28;20113;-78
2023/07/06 05:29:44;;;;;;;0.10;0.10;;;;;;;-145.06;100.00;63404.56;10384153;28;20036;-77
2023/07/06 05:34:45;;;;;;;0.00;0.00;;;;;;;-145.06;100.00;63404.56;10378721;28;20724;-78
2023/07/06 05:39:45;;;;;;;0.00;0.00;;;;;;;-145.06;100.00;63404.56;10371129;28;20029;-77
2023/07/06 05:44:46;;;;;;;0.00;0.00;;;;;;;-145.06;100.00;63404.56;10384344;28;20034;-78
2023/07/06 05:49:46;;;;;;;0.00;0.00;;;;;;;-145.06;100.00;63404.56;10388813;28;20037;-77
2023/07/06 05:54:46;;;;;;;0.00;0.00;;;;;;;-145.06;100.00;63404.56;10377538;28;20507;-77
2023/07/06 05:59:48;;;;;;;0.00;0.00;;;;;;;-145.06;100.00;63404.56;10381325;28;20037;-77
2023/07/06 06:04:51;;;;;;;0.10;0.10;;;;;;;-145.06;100.00;63404.56;10374465;28;20418;-78
2023/07/06 06:09:51;;;;;;;0.10;0.10;;;;;;;-145.06;100.00;63404.56;10375919;28;20087;-78
2023/07/06 06:14:52;;;;;;;0.10;0.10;;;;;;;-145.06;100.00;63404.56;10369805;28;20123;-78
2023/07/06 06:19:53;;;;;;;0.00;0.00;;;;;;;-145.06;100.00;63404.56;10392787;28;20049;-78
2023/07/06 06:24:53;;;;;;;0.10;0.10;;;;;;;-145.06;100.00;63404.56;10384606;28;20053;-80
2023/07/06 06:29:54;;;;;;;0.00;0.00;;;;;;;-145.06;100.00;63404.56;10387378;28;20057;-78
2023/07/06 06:34:54;;;;;;;0.10;0.10;;;;;;;-145.06;100.00;63404.56;10382657;28;20486;-79
2023/07/06 06:39:55;;;;;;;0.03;0.03;;;;;;;-145.06;100.00;63404.56;10395132;28;20251;-79
2023/07/06 06:44:57;;;;;;;0.10;0.10;;;;;;;-145.06;100.00;63404.56;10396401;28;20037;-79
2023/07/06 06:49:58;;;;;;;0.10;0.10;;;;;;;-145.06;100.00;63404.56;10395937;28;20180;-79
2023/07/06 06:54:58;;;;;;;0.08;0.08;;;;;;;-145.06;100.00;63404.56;10402439;28;20104;-78
2023/07/06 06:59:59;;;;;;;0.05;0.05;;;;;;;-145.06;100.00;63404.56;10402056;28;20544;-80
2023/07/06 07:05:00;;;;;;;0.10;0.10;;;;;;;-145.06;100.00;63404.56;10396075;28;20025;-78
2023/07/06 07:10:00;;;;;;;0.05;0.05;;;;;;;-145.06;100.00;63404.56;10415081;22;20425;-77
2023/07/06 07:15:01;;;;;;;0.10;0.10;;;;;;;-145.06;100.00;63404.56;10381756;28;20038;-76
2023/07/06 07:20:01;;;;;;;0.10;0.10;;;;;;;-145.06;100.00;63404.56;10343747;28;20121;-77
2023/07/06 07:25:02;;;;;;;0.00;0.00;;;;;;;-145.06;100.00;63404.56;10339861;28;20030;-76
2023/07/06 07:30:04;;;;;;;0.10;0.10;;;;;;;-145.06;100.00;63404.56;10339621;28;20081;-76
2023/07/06 07:35:05;;;;;;;0.10;0.10;;;;;;;-145.06;100.00;63404.56;10345226;28;20034;-76
2023/07/06 07:40:06;;;;;;;0.00;0.00;;;;;;;-145.06;100.00;63404.56;10339979;28;20545;-76
2023/07/06 07:45:07;;;;;;;0.10;0.10;;;;;;;-145.06;100.00;63404.56;10346708;28;20520;-76
2023/07/06 07:50:08;;;;;;;0.10;0.10;;;;;;;-145.06;100.00;63404.56;10337308;28;20554;-76
2023/07/06 07:55:09;;;;;;;0.00;0.00;;;;;;;-145.06;100.00;63404.56;10329936;28;20034;-76
2023/07/06 08:00:10;;;;;;;0.10;0.10;;;;;;;-145.06;100.00;63404.56;10340124;28;20376;-76
2023/07/06 08:05:11;;;;;;;0.10;0.10;;;;;;;-145.06;100.00;63404.56;10345632;28;20022;-76
2023/07/06 08:10:11;;;;;;;0.00;0.00;;;;;;;-145.06;100.00;63404.56;10348372;28;20038;-76
2023/07/06 08:15:13;;;;;;;0.00;0.00;;;;;;;-145.06;100.00;63404.56;10341460;28;20036;-76
2023/07/06 08:20:14;;;;;;;;;;;;;;;-145.06;100.00;63404.56;10338025;28;20502;-76
2023/07/06 08:25:14;;;;;;;0.10;0.10;;;;;;;-145.06;100.00;63404.56;10337727;28;19955;-76
2023/07/06 08:30:14;;;;;;;0.10;0.10;;;;;;;-145.06;100.00;63404.56;10335467;28;20041;-76
2023/07/06 08:35:19;;;;;;;0.00;0.00;;;;;;;-145.06;100.00;63404.56;10334405;28;20471;-76
2023/07/06 08:40:23;;;;;;;0.00;0.00;;;;;;;-145.06;100.00;63404.56;10346650;28;20026;-76
2023/07/06 08:45:30;;;;;;;0.10;0.10;;;;;;;-145.06;100.00;63404.56;10335248;28;20109;-75
2023/07/06 08:50:33;;;;;;;0.10;0.10;;;;;;;-145.06;100.00;63404.56;10346335;28;20029;-75
2023/07/06 08:55:34;;;;;;;0.00;0.00;;;;;;;-145.06;100.00;63404.56;10343445;28;20418;-76
2023/07/06 09:00:34;;;;;;;0.10;0.10;;;;;;;-145.06;100.00;63404.56;10339078;28;20034;-75
2023/07/06 09:05:38;;;;;;;0.10;0.10;;;;;;;-145.06;100.00;63404.56;10324208;28;20069;-75
2023/07/06 09:10:38;;;;;;;0.10;0.10;;;;;;;-145.06;100.00;63404.56;10328391;28;20030;-76
2023/07/06 09:15:39;;;;;;;0.00;0.00;;;;;;;-145.06;100.00;63404.56;10337508;28;20034;-75
2023/07/06 09:20:39;;;;;;;0.00;0.00;;;;;;;-145.06;100.00;63404.56;10325735;28;20034;-76
2023/07/06 09:25:42;;;;;;;0.00;0.00;;;;;;;-145.06;100.00;63404.56;10327710;28;20399;-75
2023/07/06 09:30:44;;;;;;;0.00;0.00;;;;;;;-145.06;100.00;63404.56;10328793;28;20069;-75
2023/07/06 09:35:45;;;;;;;0.00;0.00;;;;;;;-145.06;100.00;63404.56;10327321;28;20080;-75
2023/07/06 09:40:46;;;;;;;0.10;0.10;;;;;;;-145.06;100.00;63404.56;10328260;28;20447;-75
2023/07/06 09:45:51;;;;;;;0.00;0.00;;;;;;;-145.06;100.00;63404.56;10328916;28;20064;-75
2023/07/06 09:50:55;;;;;;;0.00;0.00;;;;;;;-145.06;100.00;63404.56;10338817;28;20046;-75
2023/07/06 09:55:55;;;;;;;0.00;0.00;;;;;;;-145.06;100.00;63404.56;10328759;28;20038;-75
2023/07/06 10:01:10;;;;;;;0.00;0.00;;;;;;;-145.06;100.00;63404.56;10326722;28;20084;-75
2023/07/06 10:06:19;;;;;;;0.00;0.00;;;;;;;-145.06;100.00;63404.56;10342397;28;20408;-75
2023/07/06 10:11:34;;;;;;;0.00;0.00;;;;;;;-145.06;100.00;63404.56;10350408;28;20026;-75
2023/07/06 10:16:53;;;;;;;0.00;0.00;;;;;;;-145.06;100.00;63404.56;10342360;28;20033;-75
2023/07/06 10:22:28;;;;;;;0.00;0.00;;;;;;;-145.06;100.00;63404.56;10339224;28;20506;-75
2023/07/06 10:27:33;;;;;;;0.00;0.00;;;;;;;-145.06;100.00;63404.56;10344011;28;20068;-75
2023/07/06 10:32:42;;;;;;;0.00;0.00;;;;;;;-145.06;100.00;63404.56;10342430;28;20124;-75
2023/07/06 10:37:43;;;;;;;0.00;0.00;;;;;;;-145.06;100.00;63404.56;10344584;28;20041;-75
2023/07/06 10:42:49;;;;;;;0.10;0.10;;;;;;;-145.06;100.00;63404.56;10349792;28;20483;-75
2023/07/06 10:47:50;;;;;;;0.00;0.00;;;;;;;-145.06;100.00;63404.56;10339148;28;20037;-75
2023/07/06 10:53:03;;;;;;;0.00;0.00;;;;;;;-145.06;100.00;63404.56;10328754;28;20034;-76
2023/07/06 10:58:26;;;;;;;0.00;0.00;;;;;;;-145.06;100.00;63404.56;10323187;28;20034;-76
2023/07/06 11:03:31;;;;;;;0.00;0.00;;;;;;;-145.06;100.00;63404.56;10338825;28;20112;-76
2023/07/06 11:09:07;;;;;;;0.00;0.00;;;;;;;-145.06;100.00;63404.56;10341787;28;20045;-76
2023/07/06 11:14:18;;;;;;;0.00;0.00;;;;;;;-145.06;100.00;63404.56;10335975;28;20073;-76
2023/07/06 11:19:26;;;;;;;0.00;0.00;;;;;;;-145.06;100.00;63404.56;10347674;28;20129;-76
2023/07/06 11:24:32;;;;;;;0.00;0.00;;;;;;;-145.06;100.00;63404.56;10340874;28;20411;-76
2023/07/06 11:29:33;;;;;;;0.00;0.00;;;;;;;-145.06;100.00;63404.56;10347548;28;20037;-76
2023/07/06 11:34:34;;;;;;;0.00;0.00;;;;;;;-145.06;100.00;63404.56;10351191;28;20034;-76
2023/07/06 11:39:46;;;;;;;0.00;0.00;;;;;;;-145.06;100.00;63404.56;10346990;28;20421;-75
2023/07/06 11:44:51;;;;;;;0.10;0.10;;;;;;;-145.06;100.00;63404.56;10328408;28;20030;-75
2023/07/06 11:49:57;;;;;;;0.00;0.00;;;;;;;-145.06;100.00;63404.56;10349755;28;20027;-75
2023/07/06 11:55:18;;;;;;;0.00;0.00;;;;;;;-145.06;100.00;63404.56;10345310;28;20038;-76
2023/07/06 12:05:29;;;;;;;0.00;0.00;;;;;;;-145.06;100.00;63404.56;10348575;28;20028;-75
2023/07/06 12:10:34;;;;;;;0.00;0.00;;;;;;;-145.06;100.00;63404.56;10341069;28;20038;-75
2023/07/06 12:15:36;;;;;;;0.10;0.10;;;;;;;-145.06;100.00;63404.56;10341701;28;20042;-76
2023/07/06 12:20:37;;;;;;;0.00;0.00;;;;;;;-145.06;100.00;63404.56;10332524;28;20036;-76
2023/07/06 12:25:40;;;;;;;0.00;0.00;;;;;;;-145.06;100.00;63404.56;10353308;28;20033;-76
2023/07/06 12:30:43;;;;;;;0.00;0.00;;;;;;;-145.06;100.00;63404.56;10325554;28;20073;-76
2023/07/06 12:35:43;;;;;;;0.00;0.00;;;;;;;-145.06;100.00;63404.56;10341413;28;20518;-76
2023/07/06 12:40:44;;;;;;;0.00;0.00;;;;;;;-145.06;100.00;63404.56;10342450;28;20117;-75
2023/07/06 12:45:45;;;;;;;0.00;0.00;;;;;;;-145.06;100.00;63404.56;10344524;28;20030;-75
2023/07/06 12:50:49;;;;;;;0.00;0.00;;;;;;;-145.06;100.00;63404.56;10340399;28;20030;-75
2023/07/06 12:55:50;;;;;;;0.10;0.10;;;;;;;-145.06;100.00;63404.56;10347190;28;20038;-75
2023/07/06 13:00:51;;;;;;;0.00;0.00;;;;;;;-145.06;100.00;63404.56;10327033;28;20037;-75
2023/07/06 13:05:55;;;;;;;0.10;0.10;;;;;;;-145.06;100.00;63404.56;10365970;22;20040;-78
2023/07/06 13:11:07;;;;;;;0.10;0.10;;;;;;;-145.06;100.00;63404.56;10398606;28;20137;-79
2023/07/06 13:16:17;;;;;;;0.00;0.00;;;;;;;-145.06;100.00;63404.56;10344762;28;20035;-78
2023/07/06 13:21:25;;;;;;;0.10;0.10;;;;;;;-145.06;100.00;63404.56;10347149;28;20026;-78
2023/07/06 13:26:26;;;;;;;0.00;0.00;;;;;;;-145.06;100.00;63404.56;10341329;28;20458;-79
2023/07/06 13:31:27;;;;;;;0.10;0.10;;;;;;;-145.06;100.00;63404.56;10327624;28;20065;-79
2023/07/06 13:36:27;;;;;;;0.00;0.00;;;;;;;-145.06;100.00;63404.56;10330688;28;20522;-78
2023/07/06 13:41:28;;;;;;;0.00;0.00;;;;;;;-145.06;100.00;63404.56;10330968;28;20050;-79
2023/07/06 13:46:31;;;;;;;0.00;0.00;;;;;;;-145.06;100.00;63404.56;10347305;28;20041;-79
2023/07/06 13:51:31;;;;;;;0.00;0.00;;;;;;;-145.06;100.00;63404.56;10349228;28;20314;-79
2023/07/06 13:56:33;;;;;;;0.00;0.00;;;;;;;-145.06;100.00;63404.56;10324438;28;20037;-77
2023/07/06 14:01:33;;;;;;;0.00;0.00;;;;;;;-145.06;100.00;63404.56;10351806;28;20450;-79
2023/07/06 14:06:34;;;;;;;0.08;0.08;;;;;;;-145.06;100.00;63404.56;10351844;28;20037;-79
2023/07/06 14:11:35;;;;;;;0.00;0.00;;;;;;;-145.06;100.00;63404.56;10341390;28;20131;-79
2023/07/06 14:16:36;;;;;;;0.10;0.10;;;;;;;-145.06;100.00;63404.56;10345419;28;20454;-79
2023/07/06 14:21:37;;;;;;;0.00;0.00;;;;;;;-145.06;100.00;63404.56;10343952;28;20109;-79
2023/07/06 14:26:37;;;;;;;0.00;0.00;;;;;;;-145.06;100.00;63404.56;10330017;28;20026;-78
2023/07/06 14:31:38;;;;;;;0.00;0.00;;;;;;;-145.06;100.00;63404.56;10329422;28;20455;-79
2023/07/06 14:36:38;;;;;;;0.00;0.00;;;;;;;-145.06;100.00;63404.56;10327408;28;20041;-79
2023/07/06 14:41:39;;;;;;;0.00;0.00;;;;;;;-145.06;100.00;63404.56;10339626;28;20030;-80
2023/07/06 14:46:39;;;;;;;0.00;0.00;;;;;;;-145.06;100.00;63404.56;10323637;28;20256;-80
2023/07/06 14:51:39;;;;;;;0.00;0.00;;;;;;;-145.06;100.00;63404.56;10348244;28;20030;-80
2023/07/06 14:56:40;;;;;;;0.10;0.10;;;;;;;-145.06;100.00;63404.56;10352998;28;20121;-79
2023/07/06 15:01:40;;;;;;;0.00;0.00;;;;;;;-145.06;100.00;63404.56;10349324;28;20035;-78
2023/07/06 15:06:40;;;;;;;0.05;0.05;;;;;;;-145.06;100.00;63404.56;10344023;28;20037;-79
2023/07/06 15:11:40;;;;;;;0.00;0.00;;;;;;;-145.06;100.00;63404.56;10346751;28;20018;-78
2023/07/06 15:16:41;;;;;;;0.00;0.00;;;;;;;-145.06;100.00;63404.56;10346396;28;20509;-79
2023/07/06 15:21:42;;;;;;;0.00;0.00;;;;;;;-145.06;100.00;63404.56;10330453;28;20025;-78
2023/07/06 15:26:42;;;;;;;0.00;0.00;;;;;;;-145.06;100.00;63404.56;10345578;28;20046;-80
2023/07/06 15:31:43;;;;;;;0.00;0.00;;;;;;;-145.06;100.00;63404.56;10327793;28;20027;-78
2023/07/06 15:36:43;;;;;;;0.00;0.00;;;;;;;-145.06;100.00;63404.56;10326900;28;20065;-79
2023/07/06 15:41:44;;;;;;;0.00;0.00;;;;;;;-145.06;100.00;63404.56;10350880;28;20074;-78
2023/07/06 15:46:44;;;;;;;0.00;0.00;;;;;;;-145.06;100.00;63404.56;10350951;28;20402;-79
2023/07/06 15:51:44;;;;;;;0.00;0.00;;;;;;;-145.06;100.00;63404.56;10350577;28;20022;-79
2023/07/06 15:56:44;;;;;;;0.00;0.00;;;;;;;-145.06;100.00;63404.56;10329634;28;20036;-79
2023/07/06 16:01:45;;;;;;;0.00;0.00;;;;;;;-145.06;100.00;63404.56;10324948;28;20108;-78
2023/07/06 16:06:45;;;;;;;0.00;0.00;;;;;;;-145.06;100.00;63404.56;10342142;28;20062;-79
2023/07/06 16:11:46;;;;;;;0.00;0.00;;;;;;;-145.06;100.00;63404.56;10341635;28;20479;-78
2023/07/06 16:16:46;;;;;;;0.00;0.00;;;;;;;-145.06;100.00;63404.56;10341906;28;20034;-79
2023/07/06 16:21:46;;;;;;;0.00;0.00;;;;;;;-145.06;100.00;63404.56;10341171;28;20034;-79
2023/07/06 16:26:47;;;;;;;0.00;0.00;;;;;;;-145.06;100.00;63404.56;10338464;28;20032;-79
2023/07/06 16:31:47;;;;;;;0.03;0.03;;;;;;;-145.06;100.00;63404.56;10339151;28;20034;-79
2023/07/06 16:36:48;;;;;;;0.00;0.00;;;;;;;-145.06;100.00;63404.56;10359341;28;20038;-78
2023/07/06 16:41:48;;;;;;;0.00;0.00;;;;;;;-145.06;100.00;63404.56;10320083;28;20029;-79
2023/07/06 16:46:48;;;;;;;0.00;0.00;;;;;;;-145.06;100.00;63404.56;10337244;28;20041;-79
2023/07/06 16:51:49;;;;;;;0.00;0.00;;;;;;;-145.06;100.00;63404.56;10344507;28;20041;-79
2023/07/06 16:56:49;;;;;;;0.10;0.10;;;;;;;-145.06;100.00;63404.56;10319111;28;20049;-79
2023/07/06 17:01:51;;;;;;;0.00;0.00;;;;;;;-145.06;100.00;63404.56;10318723;28;20030;-79
2023/07/06 17:06:52;;;;;;;0.00;0.00;;;;;;;-145.06;100.00;63404.56;10336148;28;20473;-79
2023/07/06 17:11:52;;;;;;;0.00;0.00;;;;;;;-145.06;100.00;63404.56;10335247;28;20121;-79
2023/07/06 17:16:52;;;;;;;0.10;0.10;;;;;;;-145.06;100.00;63404.56;10334017;28;20043;-78
2023/07/06 17:21:52;;;;;;;0.00;0.00;;;;;;;-145.06;100.00;63404.56;10350920;28;20371;-79
2023/07/06 17:26:53;;;;;;;0.03;0.03;;;;;;;-145.06;100.00;63404.56;10345352;28;20030;-80
2023/07/06 17:31:53;;;;;;;0.00;0.00;;;;;;;-145.06;100.00;63404.56;10320364;28;20061;-79
2023/07/06 17:36:53;;;;;;;0.10;0.10;;;;;;;-145.06;100.00;63404.56;10320705;28;20046;-78
2023/07/06 17:41:53;;;;;;;0.00;0.00;;;;;;;-145.06;100.00;63404.56;10333074;28;20034;-79
2023/07/06 17:46:54;;;;;;;0.10;0.10;;;;;;;-145.06;100.00;63404.56;10332974;28;20038;-78
2023/07/06 17:51:54;;;;;;;0.10;0.10;;;;;;;-145.06;100.00;63404.56;10313458;28;20026;-78
2023/07/06 17:56:54;;;;;;;0.10;0.10;;;;;;;-145.06;100.00;63404.56;10329814;28;20495;-79
2023/07/06 18:01:55;;;;;;;0.10;0.10;;;;;;;-145.06;100.00;63404.56;10329337;28;20442;-79
2023/07/06 18:06:55;;;;;;;0.10;0.10;;;;;;;-145.06;100.00;63404.56;10336092;28;20057;-79
2023/07/06 18:11:55;;;;;;;0.00;0.00;;;;;;;-145.06;100.00;63404.56;10319244;28;20033;-79
2023/07/06 18:16:55;;;;;;;0.10;0.10;;;;;;;-145.06;100.00;63404.56;10342924;28;20040;-79
2023/07/06 18:21:57;;;;;;;0.00;0.00;;;;;;;-145.06;100.00;63404.56;10346906;28;20536;-76
2023/07/06 18:26:59;;;;;;;0.10;0.10;;;;;;;-145.06;100.00;63404.56;10352890;28;20036;-80
2023/07/06 18:31:59;;;;;;;0.10;0.10;;;;;;;-145.06;100.00;63404.56;10324385;28;20073;-79
2023/07/06 18:36:59;;;;;;;0.10;0.10;;;;;;;-145.06;100.00;63404.56;10346967;28;20054;-79
2023/07/06 18:42:00;;;;;;;0.10;0.10;;;;;;;-145.06;100.00;63404.56;10347290;28;20037;-79
2023/07/06 18:47:01;;;;;;;0.10;0.10;;;;;;;-145.06;100.00;63404.56;10345251;28;20562;-78
2023/07/06 18:52:01;;;;;;;0.10;0.10;;;;;;;-145.06;100.00;63404.56;10348841;28;20042;-79
2023/07/06 18:57:02;;;;;;;0.10;0.10;;;;;;;-145.06;100.00;63404.56;10329868;28;20047;-79
2023/07/06 19:02:02;;;;;;;0.05;0.05;;;;;;;-145.06;100.00;63404.56;10344800;28;20264;-79
2023/07/06 19:07:03;;;;;;;0.10;0.10;;;;;;;-145.06;100.00;63404.56;10348604;28;20041;-79
2023/07/06 19:12:04;;;;;;;0.10;0.10;;;;;;;-145.06;100.00;63404.56;10326220;28;20030;-79
2023/07/06 19:17:04;;;;;;;0.10;0.10;;;;;;;-145.06;100.00;63404.56;10348153;28;20030;-79
2023/07/06 19:22:06;;;;;;;0.00;0.00;;;;;;;-145.06;100.00;63404.56;10339357;28;20030;-79
2023/07/06 19:27:06;;;;;;;0.10;0.10;;;;;;;-145.06;100.00;63404.56;10331191;28;20307;-79
2023/07/06 19:32:07;;;;;;;0.10;0.10;;;;;;;-145.06;100.00;63404.56;10328551;28;20023;-79
2023/07/06 19:37:07;;;;;;;0.10;0.10;;;;;;;-145.06;100.00;63404.56;10336705;28;20495;-79
2023/07/06 19:42:07;;;;;;;0.10;0.10;;;;;;;-145.06;100.00;63404.56;10337163;28;20022;-78
2023/07/06 19:47:08;;;;;;;0.10;0.10;;;;;;;-145.06;100.00;63404.56;10344014;28;20026;-79
2023/07/06 19:52:08;;;;;;;0.10;0.10;;;;;;;-145.06;100.00;63404.56;10359572;28;20023;-79
2023/07/06 19:57:08;;;;;;;0.10;0.10;;;;;;;-145.06;100.00;63404.56;10330621;28;20026;-78
2023/07/06 20:02:11;;;;;;;0.00;0.00;;;;;;;-145.06;100.00;63404.56;10345834;28;20019;-80
2023/07/06 20:07:12;;;;;;;0.10;0.10;;;;;;;-145.06;100.00;63404.56;10328228;28;20038;-78
2023/07/06 20:12:12;;;;;;;0.00;0.00;;;;;;;-145.06;100.00;63404.56;10344833;28;20752;-78
2023/07/06 20:17:14;;;;;;;0.10;0.10;;;;;;;-145.06;100.00;63404.56;10343813;28;20049;-78
2023/07/06 20:22:14;;;;;;;0.10;0.10;;;;;;;-145.06;100.00;63404.56;10345210;28;20508;-79
2023/07/06 20:27:14;;;;;;;0.10;0.10;;;;;;;-145.06;100.00;63404.56;10336847;28;20026;-78
2023/07/06 20:32:15;;;;;;;0.10;0.10;;;;;;;-145.06;100.00;63404.56;10339191;28;20034;-78
2023/07/06 20:37:15;;;;;;;0.10;0.10;;;;;;;-145.06;100.00;63404.56;10342898;28;20136;-79
2023/07/06 20:42:18;;;;;;;0.10;0.10;;;;;;;-145.06;100.00;63404.56;10347810;28;20026;-78
2023/07/06 20:47:19;;;;;;;0.10;0.10;;;;;;;-145.06;100.00;63404.56;10338174;28;20235;-78
2023/07/06 20:52:23;;;;;;;0.10;0.10;;;;;;;-145.06;100.00;63404.56;10334354;28;20065;-78
2023/07/06 20:57:24;;;;;;;0.10;0.10;;;;;;;-145.06;100.00;63404.56;10332984;28;20046;-78
2023/07/06 21:02:24;;;;;;;0.10;0.10;;;;;;;-145.06;100.00;63404.56;10315890;28;20026;-78
2023/07/06 21:07:24;;;;;;;0.10;0.10;;;;;;;-145.06;100.00;63404.56;10331726;28;20034;-78
2023/07/06 21:12:25;;;;;;;0.10;0.10;;;;;;;-145.06;100.00;63404.56;10331711;28;20226;-78
2023/07/06 21:17:25;;;;;;;0.10;0.10;;;;;;;-145.06;100.00;63404.56;10331692;28;20049;-78
2023/07/06 21:22:25;;;;;;;0.10;0.10;;;;;;;-145.06;100.00;63404.56;10330377;28;20030;-79
2023/07/06 21:27:25;;;;;;;0.10;0.10;;;;;;;-145.06;100.00;63404.56;10336985;28;20391;-79
2023/07/06 21:32:26;;;;;;;0.10;0.10;;;;;;;-145.06;100.00;63404.56;10328887;28;20495;-78
2023/07/06 21:37:26;;;;;;;0.10;0.10;;;;;;;-145.06;100.00;63404.56;10318769;28;20054;-78
2023/07/06 21:42:26;;;;;;;0.10;0.10;;;;;;;-145.06;100.00;63404.56;10346879;28;20018;-79
2023/07/06 21:47:27;;;;;;;0.10;0.10;;;;;;;-145.06;100.00;63404.56;10347371;28;20046;-78
2023/07/06 21:52:27;;;;;;;0.10;0.10;;;;;;;-145.06;100.00;63404.56;10343005;28;20033;-79
2023/07/06 21:57:27;;;;;;;0.00;0.00;;;;;;;-145.06;100.00;63404.56;10342322;28;20038;-78
2023/07/06 22:02:28;;;;;;;0.10;0.10;;;;;;;-145.06;100.00;63404.56;10347670;28;20027;-79
2023/07/06 22:07:28;;;;;;;0.10;0.10;;;;;;;-145.06;100.00;63404.56;10345237;28;20026;-78
2023/07/06 22:12:28;;;;;;;0.10;0.10;;;;;;;-145.06;100.00;63404.56;10357270;28;20277;-78
2023/07/06 22:17:29;;;;;;;0.10;0.10;;;;;;;-145.06;100.00;63404.56;10349571;28;20030;-78
2023/07/06 22:22:29;;;;;;;0.10;0.10;;;;;;;-145.06;100.00;63404.56;10341819;28;20468;-79
2023/07/06 22:27:29;;;;;;;0.10;0.10;;;;;;;-145.06;100.00;63404.56;10343477;28;20746;-79
2023/07/06 22:32:30;;;;;;;0.10;0.10;;;;;;;-145.06;100.00;63404.56;10339619;28;20198;-81
2023/07/06 22:37:30;;;;;;;0.10;0.10;;;;;;;-145.06;100.00;63404.56;10352034;28;20041;-81
2023/07/06 22:42:30;;;;;;;0.10;0.10;;;;;;;-145.06;100.00;63404.56;10332530;28;20037;-80
2023/07/06 22:47:31;;;;;;;0.10;0.10;;;;;;;-145.06;100.00;63404.56;10347896;28;20531;-81
2023/07/06 22:52:31;;;;;;;0.10;0.10;;;;;;;-145.06;100.00;63404.56;10350538;28;20398;-80
2023/07/06 22:57:31;;;;;;;0.10;0.10;;;;;;;-145.06;100.00;63404.56;10351846;28;20113;-81